Time;durP1;ratioP1;P1;durP2;ratioP2;P2;SDS_P1;SDS_P2;PMS_P1;PMS_P2;Temp;Humidity;BMP_temperature;BMP_pressure;BME280_temperature;BME280_humidity;BME280_pressure;Samples;Min_cycle;Max_cycle;Signal;HPM_P1;HPM_P2
2023/01/11 00:00:31;;;;;;;17.08;14.88;;;8.30;99.90;;;;;;6150642;23;20440;-82
2023/01/11 00:02:58;;;;;;;18.55;16.40;;;8.40;99.90;;;;;;6152752;23;20014;-83
2023/01/11 00:05:24;;;;;;;19.85;16.52;;;8.60;99.90;;;;;;6151088;23;20009;-83
2023/01/11 00:07:51;;;;;;;21.77;15.02;;;8.60;99.90;;;;;;6151384;23;20014;-82
2023/01/11 00:10:17;;;;;;;17.98;14.75;;;8.40;99.90;;;;;;6151345;23;20341;-82
2023/01/11 00:12:43;;;;;;;18.13;14.43;;;8.40;99.90;;;;;;6151843;23;20013;-82
2023/01/11 00:15:09;;;;;;;16.70;14.35;;;8.50;99.90;;;;;;6154080;23;20018;-82
2023/01/11 00:17:35;;;;;;;17.60;14.35;;;8.50;99.90;;;;;;6153396;23;20020;-83
2023/01/11 00:20:00;;;;;;;16.25;13.80;;;8.50;99.90;;;;;;6153292;23;20253;-83
2023/01/11 00:22:26;;;;;;;14.60;13.05;;;8.50;99.90;;;;;;6156884;23;20013;-83
2023/01/11 00:24:52;;;;;;;16.75;14.38;;;8.60;99.90;;;;;;6153969;23;20057;-82
2023/01/11 00:27:17;;;;;;;18.02;14.25;;;8.50;99.90;;;;;;6154882;23;20014;-82
2023/01/11 00:29:43;;;;;;;16.13;14.07;;;8.50;99.90;;;;;;6152388;23;20328;-83
2023/01/11 00:32:09;;;;;;;16.77;13.30;;;8.60;99.90;;;;;;6153234;23;20017;-83
2023/01/11 00:34:35;;;;;;;16.60;13.45;;;8.60;99.90;;;;;;6155013;23;20152;-82
2023/01/11 00:37:00;;;;;;;15.23;12.50;;;8.60;99.90;;;;;;6153098;23;20437;-82
2023/01/11 00:39:26;;;;;;;15.38;12.63;;;8.60;99.90;;;;;;6153195;23;20017;-83
2023/01/11 00:50:04;;;;;;;14.77;12.35;;;8.70;99.90;;;;;;6154563;23;20022;-83
2023/01/11 00:52:30;;;;;;;13.32;11.75;;;8.70;99.90;;;;;;6153234;23;20032;-83
2023/01/11 00:54:55;;;;;;;13.80;11.98;;;8.70;99.90;;;;;;6153022;23;20088;-83
2023/01/11 00:57:22;;;;;;;16.77;12.75;;;8.70;99.90;;;;;;6153014;23;20021;-82
2023/01/11 00:59:47;;;;;;;13.05;11.65;;;8.80;99.90;;;;;;6152353;23;20084;-83
2023/01/11 01:02:13;;;;;;;14.95;12.88;;;8.80;99.90;;;;;;6153280;23;20441;-83
2023/01/11 01:04:39;;;;;;;17.23;13.20;;;8.90;99.90;;;;;;6152944;23;20009;-83
2023/01/11 01:07:06;;;;;;;13.98;11.95;;;8.90;99.90;;;;;;6153056;23;20037;-83
2023/01/11 01:09:31;;;;;;;14.02;11.88;;;9.20;99.90;;;;;;6156257;23;20017;-82
2023/01/11 01:11:58;;;;;;;13.00;11.60;;;8.80;99.90;;;;;;6152800;23;20032;-83
2023/01/11 01:14:30;;;;;;;13.45;12.05;;;8.90;99.90;;;;;;6127629;23;20024;-83
2023/01/11 01:16:59;;;;;;;12.43;11.18;;;8.90;99.90;;;;;;6152877;23;20456;-83
2023/01/11 01:19:28;;;;;;;12.13;10.82;;;9.00;99.90;;;;;;6152887;23;20025;-82
2023/01/11 01:21:55;;;;;;;13.85;12.30;;;9.00;99.90;;;;;;6152943;23;20368;-83
2023/01/11 01:24:21;;;;;;;14.30;12.02;;;9.00;99.90;;;;;;6152618;23;20017;-83
2023/01/11 01:26:47;;;;;;;14.30;11.90;;;9.00;99.90;;;;;;6152701;23;20084;-82
2023/01/11 01:29:13;;;;;;;12.55;10.57;;;9.00;99.90;;;;;;6152518;23;20453;-82
2023/01/11 01:31:39;;;;;;;14.13;11.15;;;9.00;99.90;;;;;;6152578;23;20068;-82
2023/01/11 01:34:05;;;;;;;11.98;10.77;;;9.30;99.90;;;;;;6128182;23;20021;-82
2023/01/11 01:36:32;;;;;;;14.20;12.70;;;9.10;99.90;;;;;;6152751;23;20318;-82
2023/01/11 01:39:01;;;;;;;13.85;11.50;;;9.10;99.90;;;;;;6152357;23;20113;-82
2023/01/11 01:41:27;;;;;;;13.32;11.50;;;9.30;99.90;;;;;;6152550;23;20013;-83
2023/01/11 01:44:01;;;;;;;17.33;11.30;;;9.40;99.90;;;;;;6151773;23;20017;-82
2023/01/11 01:46:30;;;;;;;15.18;11.52;;;9.10;99.90;;;;;;6152401;23;20010;-82
2023/01/11 01:49:06;;;;;;;11.93;10.73;;;9.20;99.90;;;;;;6152412;23;20468;-83
2023/01/11 01:51:48;;;;;;;12.93;11.05;;;9.20;99.90;;;;;;6152518;23;20013;-82
2023/01/11 01:54:20;;;;;;;11.80;9.60;;;9.30;99.90;;;;;;6152935;23;20014;-83
2023/01/11 01:56:51;;;;;;;10.52;9.43;;;9.40;99.90;;;;;;6155145;23;20334;-83
2023/01/11 01:59:19;;;;;;;11.68;10.38;;;9.40;99.90;;;;;;6152410;23;20093;-82
2023/01/11 02:01:48;;;;;;;12.55;9.73;;;9.30;99.90;;;;;;6154493;23;20063;-83
2023/01/11 02:04:32;;;;;;;12.25;8.98;;;9.30;99.90;;;;;;6153837;23;20412;-82
2023/01/11 02:07:02;;;;;;;9.85;8.90;;;9.40;99.90;;;;;;6152246;23;20033;-83
2023/01/11 02:09:47;;;;;;;11.43;9.43;;;9.40;99.90;;;;;;6127670;23;20021;-83
2023/01/11 02:12:14;;;;;;;11.80;9.43;;;9.40;99.90;;;;;;6153850;23;20017;-83
2023/01/11 02:14:42;;;;;;;11.05;9.18;;;9.40;99.90;;;;;;6153713;23;20349;-83
2023/01/11 02:17:08;;;;;;;11.40;9.32;;;9.40;99.90;;;;;;6152255;23;20018;-83
2023/01/11 02:19:53;;;;;;;11.40;8.60;;;9.40;99.90;;;;;;6153922;23;20060;-82
2023/01/11 02:22:21;;;;;;;13.85;9.07;;;9.50;99.90;;;;;;6152045;23;20017;-82
2023/01/11 02:25:14;;;;;;;10.65;7.63;;;9.40;99.90;;;;;;6151971;23;20056;-83
2023/01/11 02:27:46;;;;;;;10.27;7.50;;;9.50;99.90;;;;;;6151993;23;20072;-82
2023/01/11 02:30:29;;;;;;;9.98;8.52;;;9.50;99.90;;;;;;6151957;23;20024;-83
2023/01/11 02:33:26;;;;;;;8.38;7.10;;;9.50;99.90;;;;;;6151817;23;20053;-83
2023/01/11 02:36:11;;;;;;;12.13;7.35;;;9.50;99.90;;;;;;6153305;23;20033;-83
2023/01/11 02:38:44;;;;;;;9.98;8.20;;;9.50;99.90;;;;;;6152298;23;20017;-82
2023/01/11 02:41:27;;;;;;;12.40;7.65;;;9.60;99.90;;;;;;6151718;23;20508;-82
2023/01/11 02:46:56;;;;;;;10.50;7.20;;;9.60;99.90;;;;;;6151745;23;20045;-83
2023/01/11 02:49:30;;;;;;;8.30;7.22;;;9.60;99.90;;;;;;6151956;23;20017;-83
2023/01/11 02:52:17;;;;;;;8.68;7.38;;;9.70;99.90;;;;;;6151934;23;20017;-82
2023/01/11 02:54:52;;;;;;;8.70;7.55;;;9.70;99.90;;;;;;6151142;23;20024;-83
2023/01/11 02:57:19;;;;;;;8.25;6.90;;;9.70;99.90;;;;;;6151925;23;20060;-83
2023/01/11 02:59:48;;;;;;;7.72;6.93;;;9.70;99.90;;;;;;6153606;23;20377;-82
2023/01/11 03:02:15;;;;;;;8.65;7.00;;;9.80;99.90;;;;;;6151727;23;20138;-83
2023/01/11 03:04:41;;;;;;;8.20;7.30;;;9.70;99.90;;;;;;6153621;23;20123;-83
2023/01/11 03:07:36;;;;;;;8.48;6.55;;;9.70;99.90;;;;;;6151699;23;20013;-82
2023/01/11 03:10:23;;;;;;;8.30;7.40;;;9.80;99.90;;;;;;6126606;23;20020;-83
2023/01/11 03:13:22;;;;;;;8.98;6.80;;;9.80;99.90;;;;;;6153572;23;20014;-83
2023/01/11 03:16:12;;;;;;;11.35;6.75;;;9.80;99.90;;;;;;6151541;23;20318;-82
2023/01/11 03:18:46;;;;;;;7.93;6.88;;;9.80;99.90;;;;;;6151468;23;20057;-83
2023/01/11 03:21:24;;;;;;;8.68;6.82;;;9.80;99.90;;;;;;6126983;23;20013;-82
2023/01/11 03:23:55;;;;;;;8.93;7.20;;;9.80;99.90;;;;;;6151083;23;20084;-83
2023/01/11 03:26:53;;;;;;;6.97;5.15;;;9.80;99.90;;;;;;6151473;23;20021;-83
2023/01/11 03:29:33;;;;;;;7.68;6.15;;;9.90;99.90;;;;;;6153658;23;20100;-83
2023/01/11 03:32:02;;;;;;;9.20;5.57;;;9.90;99.90;;;;;;6153325;23;20041;-82
2023/01/11 03:34:34;;;;;;;8.00;5.40;;;9.90;99.90;;;;;;6151363;23;20117;-83
2023/01/11 03:37:15;;;;;;;8.02;5.50;;;9.90;99.90;;;;;;6151473;23;20474;-82
2023/01/11 03:39:47;;;;;;;6.10;4.00;;;9.90;99.90;;;;;;6152769;23;20013;-83
2023/01/11 03:42:18;;;;;;;6.28;4.80;;;10.00;99.90;;;;;;6151527;23;20017;-82
2023/01/11 03:44:48;;;;;;;6.10;4.47;;;10.00;99.90;;;;;;6151379;23;20290;-82
2023/01/11 03:47:17;;;;;;;5.78;4.15;;;9.90;99.90;;;;;;6153385;23;20009;-83
2023/01/11 03:49:47;;;;;;;6.05;3.42;;;9.90;99.90;;;;;;6155281;23;20088;-82
2023/01/11 03:52:16;;;;;;;7.35;4.13;;;10.00;99.90;;;;;;6152896;23;20084;-82
2023/01/11 03:54:43;;;;;;;4.00;2.97;;;10.00;99.90;;;;;;6128698;23;20044;-83
2023/01/11 03:57:11;;;;;;;4.13;3.08;;;10.00;99.90;;;;;;6153247;23;20017;-83
2023/01/11 03:59:38;;;;;;;4.22;3.13;;;10.00;99.90;;;;;;6153111;23;20024;-82
2023/01/11 04:02:04;;;;;;;5.25;3.05;;;10.00;99.90;;;;;;6153189;23;20085;-83
2023/01/11 04:04:30;;;;;;;3.58;2.30;;;10.00;99.90;;;;;;6153728;23;20013;-83
2023/01/11 04:06:55;;;;;;;3.10;2.17;;;10.00;99.90;;;;;;6152854;23;20036;-82
2023/01/11 04:09:21;;;;;;;3.78;2.22;;;10.00;99.90;;;;;;6153149;23;20013;-82
2023/01/11 04:11:47;;;;;;;2.83;2.00;;;10.00;99.90;;;;;;6153389;23;20021;-83
2023/01/11 04:14:12;;;;;;;3.42;2.10;;;10.20;99.90;;;;;;6156670;23;20014;-83
2023/01/11 04:16:38;;;;;;;4.53;2.30;;;10.10;99.90;;;;;;6156023;23;20032;-83
2023/01/11 04:19:04;;;;;;;5.13;2.67;;;10.10;99.90;;;;;;6153076;23;20018;-83
2023/01/11 04:21:29;;;;;;;6.85;3.53;;;10.10;99.90;;;;;;6153002;23;20017;-83
2023/01/11 04:23:55;;;;;;;10.02;4.53;;;10.10;99.90;;;;;;6153567;23;20344;-83
2023/01/11 04:26:20;;;;;;;7.88;4.15;;;10.30;99.90;;;;;;6128495;23;20290;-82
2023/01/11 04:28:46;;;;;;;8.63;4.32;;;10.20;99.90;;;;;;6154979;23;20088;-83
2023/01/11 04:31:12;;;;;;;9.23;5.20;;;10.20;99.90;;;;;;6153089;23;20017;-83
2023/01/11 04:33:38;;;;;;;10.82;5.63;;;10.20;99.90;;;;;;6153166;23;20512;-82
2023/01/11 04:36:08;;;;;;;13.10;6.00;;;10.20;99.90;;;;;;6154539;23;20009;-83
2023/01/11 04:38:34;;;;;;;12.18;5.88;;;10.20;99.90;;;;;;6153130;23;20013;-83
2023/01/11 04:43:44;;;;;;;24.38;8.70;;;10.30;99.90;;;;;;6152840;23;20013;-83
2023/01/11 04:46:10;;;;;;;23.88;8.00;;;10.10;99.90;;;;;;6152983;23;20326;-83
2023/01/11 04:48:39;;;;;;;21.25;8.52;;;10.20;99.90;;;;;;6153307;23;20084;-83
2023/01/11 04:51:07;;;;;;;28.95;9.73;;;10.20;99.90;;;;;;6152989;23;20320;-83
2023/01/11 04:53:33;;;;;;;25.08;7.90;;;10.20;99.90;;;;;;6153816;23;20013;-83
2023/01/11 04:56:00;;;;;;;30.30;8.35;;;10.50;99.90;;;;;;6155563;23;20337;-83
2023/01/11 04:58:26;;;;;;;30.88;9.27;;;10.40;99.90;;;;;;6155456;23;20009;-83
2023/01/11 05:00:51;;;;;;;38.83;9.85;;;10.30;99.90;;;;;;6153281;23;20345;-83
2023/01/11 05:03:17;;;;;;;31.08;8.15;;;10.30;99.90;;;;;;6153772;23;20460;-82
2023/01/11 05:05:42;;;;;;;36.97;8.93;;;10.40;99.90;;;;;;6154547;23;20277;-83
2023/01/11 05:08:08;;;;;;;31.05;7.40;;;10.50;99.90;;;;;;6152832;23;20024;-83
2023/01/11 05:10:34;;;;;;;31.75;6.97;;;10.40;99.90;;;;;;6154762;23;20433;-83
2023/01/11 05:12:59;;;;;;;34.80;7.90;;;10.30;99.90;;;;;;6153357;23;20314;-83
2023/01/11 05:15:25;;;;;;;33.88;7.68;;;10.30;99.90;;;;;;6152538;23;20040;-81
2023/01/11 05:17:50;;;;;;;39.05;7.05;;;10.60;99.90;;;;;;6152730;23;20145;-82
2023/01/11 05:20:16;;;;;;;40.55;8.25;;;10.30;99.90;;;;;;6153197;23;20072;-82
2023/01/11 05:22:42;;;;;;;25.80;6.03;;;10.30;99.90;;;;;;6154586;23;20013;-82
2023/01/11 05:25:07;;;;;;;35.55;5.53;;;10.30;99.90;;;;;;6152622;23;20396;-83
2023/01/11 05:27:33;;;;;;;23.75;5.90;;;10.20;99.90;;;;;;6154504;23;20021;-83
2023/01/11 05:29:58;;;;;;;35.33;7.88;;;10.50;99.90;;;;;;6153853;23;20009;-83
2023/01/11 05:32:24;;;;;;;36.38;7.40;;;10.20;99.90;;;;;;6153564;23;20032;-83
2023/01/11 05:34:50;;;;;;;43.28;7.65;;;10.20;99.90;;;;;;6153277;23;20017;-83
2023/01/11 05:37:16;;;;;;;43.88;7.93;;;10.20;99.90;;;;;;6152348;23;20393;-83
2023/01/11 05:39:41;;;;;;;37.92;7.20;;;10.20;99.90;;;;;;6152352;23;20389;-83
2023/01/11 05:42:07;;;;;;;36.70;7.50;;;10.20;99.90;;;;;;6127444;23;20461;-84
2023/01/11 05:47:17;;;;;;;47.67;7.63;;;10.10;99.90;;;;;;6154306;23;20018;-83
2023/01/11 05:49:43;;;;;;;35.67;7.07;;;10.10;99.90;;;;;;6154654;23;20041;-83
2023/01/11 05:52:08;;;;;;;27.77;6.32;;;10.10;99.90;;;;;;6154024;23;20014;-83
2023/01/11 05:54:34;;;;;;;46.13;6.95;;;10.10;99.90;;;;;;6154205;23;20149;-83
2023/01/11 05:56:59;;;;;;;43.97;7.28;;;10.30;99.90;;;;;;6127513;23;20025;-83
2023/01/11 05:59:25;;;;;;;33.28;6.57;;;10.10;99.90;;;;;;6152121;23;20072;-83
2023/01/11 06:01:51;;;;;;;37.05;6.55;;;10.00;99.90;;;;;;6127739;23;20344;-82
2023/01/11 06:04:16;;;;;;;42.13;7.03;;;10.00;99.90;;;;;;6151829;23;20014;-83
2023/01/11 06:06:42;;;;;;;31.10;6.40;;;10.00;99.90;;;;;;6152112;23;20088;-82
2023/01/11 06:09:08;;;;;;;40.58;7.70;;;9.90;99.90;;;;;;6152313;23;20108;-83
2023/01/11 06:11:33;;;;;;;35.97;6.35;;;10.10;99.90;;;;;;6151671;23;20017;-81
2023/01/11 06:13:59;;;;;;;35.10;6.32;;;9.90;99.90;;;;;;6152242;23;20084;-86
2023/01/11 06:16:25;;;;;;;35.05;6.72;;;10.00;99.90;;;;;;6127617;23;20072;-83
2023/01/11 06:18:52;;;;;;;34.80;5.78;;;9.90;99.90;;;;;;6151514;23;20048;-83
2023/01/11 06:21:18;;;;;;;35.63;6.50;;;9.90;99.90;;;;;;6152149;23;20108;-83
2023/01/11 06:23:46;;;;;;;35.40;5.65;;;10.00;99.90;;;;;;6152269;23;20045;-83
2023/01/11 06:26:15;;;;;;;41.15;6.38;;;9.80;99.90;;;;;;6127620;23;20348;-83
2023/01/11 06:28:41;;;;;;;33.13;6.13;;;9.70;99.90;;;;;;6153922;23;20013;-82
2023/01/11 06:31:07;;;;;;;32.83;6.10;;;10.00;99.90;;;;;;6127354;23;20041;-83
2023/01/11 06:33:34;;;;;;;35.97;6.57;;;9.70;99.90;;;;;;6151709;23;20009;-83
2023/01/11 06:36:04;;;;;;;42.53;6.65;;;9.60;99.90;;;;;;6155288;23;20012;-83
2023/01/11 06:38:30;;;;;;;41.88;7.00;;;9.60;99.90;;;;;;6152037;23;20014;-83
2023/01/11 06:41:00;;;;;;;45.88;6.93;;;9.80;99.90;;;;;;6151799;23;20040;-83
2023/01/11 06:43:27;;;;;;;41.47;6.15;;;9.50;99.90;;;;;;6153869;23;20005;-83
2023/01/11 06:45:53;;;;;;;42.10;6.93;;;9.50;99.90;;;;;;6127221;23;20010;-83
2023/01/11 06:48:20;;;;;;;38.88;6.22;;;9.60;99.90;;;;;;6151805;23;20092;-83
2023/01/11 06:50:53;;;;;;;45.33;7.03;;;9.40;99.90;;;;;;6127811;23;20120;-83
2023/01/11 06:53:19;;;;;;;;;;;9.40;99.90;;;;;;6154137;23;20041;-83
2023/01/11 06:55:49;;;;;;;40.25;7.57;;;9.30;99.90;;;;;;6154604;23;19972;-82
2023/01/11 06:58:15;;;;;;;43.45;6.20;;;9.60;99.90;;;;;;6128130;23;20014;-83
2023/01/11 07:00:41;;;;;;;50.92;6.97;;;9.50;99.90;;;;;;6154530;23;20012;-83
2023/01/11 07:03:07;;;;;;;43.47;6.28;;;9.40;99.90;;;;;;6152751;23;20013;-83
2023/01/11 07:05:34;;;;;;;43.28;7.38;;;9.60;99.90;;;;;;6151787;23;20028;-83
2023/01/11 07:07:59;;;;;;;38.33;5.72;;;9.60;99.90;;;;;;6154245;23;20010;-83
2023/01/11 07:10:25;;;;;;;40.97;5.90;;;9.30;99.90;;;;;;6151909;23;20020;-82
2023/01/11 07:12:52;;;;;;;42.03;7.15;;;9.60;99.90;;;;;;6151625;23;20024;-82
2023/01/11 07:15:18;;;;;;;42.38;6.43;;;9.70;99.90;;;;;;6150086;23;20028;-82
2023/01/11 07:17:46;;;;;;;41.42;7.97;;;9.30;99.90;;;;;;6152903;23;20138;-82
2023/01/11 07:20:12;;;;;;;33.60;5.07;;;9.40;99.90;;;;;;6125824;23;20100;-83
2023/01/11 07:22:38;;;;;;;42.38;6.25;;;9.40;99.90;;;;;;6150344;23;20017;-83
2023/01/11 07:25:04;;;;;;;33.60;5.90;;;9.70;99.90;;;;;;6150426;23;20080;-83
2023/01/11 07:27:30;;;;;;;41.33;5.97;;;9.30;99.90;;;;;;6150315;23;20406;-82
2023/01/11 07:29:58;;;;;;;31.85;5.85;;;9.30;99.90;;;;;;6151841;23;20021;-83
2023/01/11 07:32:27;;;;;;;28.48;5.63;;;9.20;99.90;;;;;;6150430;23;20064;-83
2023/01/11 07:34:54;;;;;;;39.90;6.00;;;9.20;99.90;;;;;;6151708;23;20013;-83
2023/01/11 07:37:21;;;;;;;35.30;5.65;;;9.40;99.90;;;;;;6152010;23;20013;-83
2023/01/11 07:39:46;;;;;;;35.30;6.10;;;9.10;99.90;;;;;;6151221;23;20018;-83
2023/01/11 07:44:57;;;;;;;39.30;6.95;;;9.10;99.90;;;;;;6149159;23;20013;-83
2023/01/11 07:47:22;;;;;;;38.17;5.82;;;9.10;99.90;;;;;;6150223;23;20319;-83
2023/01/11 07:49:48;;;;;;;38.70;6.38;;;9.20;99.90;;;;;;6149739;23;20099;-83
2023/01/11 07:52:13;;;;;;;35.10;5.47;;;9.30;99.90;;;;;;6151478;23;20059;-83
2023/01/11 07:54:39;;;;;;;37.40;6.50;;;9.10;99.90;;;;;;6151716;23;20014;-83
2023/01/11 07:57:05;;;;;;;42.15;6.60;;;9.10;99.90;;;;;;6151764;23;20052;-83
2023/01/11 07:59:30;;;;;;;33.55;5.95;;;9.10;99.90;;;;;;6149090;23;20458;-83
2023/01/11 08:01:56;;;;;;;31.13;5.93;;;9.20;99.90;;;;;;6149766;23;20012;-83
2023/01/11 08:04:21;;;;;;;29.40;4.80;;;9.20;99.90;;;;;;6149577;23;20009;-83
2023/01/11 08:06:47;;;;;;;33.10;5.90;;;9.20;99.90;;;;;;6152048;23;20351;-83
2023/01/11 08:09:13;;;;;;;27.67;5.40;;;9.20;99.90;;;;;;6150908;23;20499;-82
2023/01/11 08:14:38;;;;;;;31.63;5.88;;;9.10;99.90;;;;;;6105014;23;1086302;-82
2023/01/11 08:17:04;;;;;;;28.17;5.97;;;9.20;99.90;;;;;;6153635;23;20034;-82
2023/01/11 08:19:29;;;;;;;27.70;5.13;;;9.30;99.90;;;;;;6152609;23;20097;-83
2023/01/11 08:21:55;;;;;;;29.50;5.93;;;9.20;99.90;;;;;;6152439;23;20033;-83
2023/01/11 08:24:20;;;;;;;23.95;5.78;;;9.20;99.90;;;;;;6128445;23;20083;-83
2023/01/11 08:26:46;;;;;;;24.27;4.95;;;9.40;99.90;;;;;;6152527;23;20441;-82
2023/01/11 08:29:12;;;;;;;25.60;4.50;;;9.10;99.90;;;;;;6153574;23;20021;-82
2023/01/11 08:31:37;;;;;;;28.75;6.20;;;9.20;99.90;;;;;;6151897;23;20337;-83
2023/01/11 08:34:03;;;;;;;21.83;5.72;;;9.00;99.90;;;;;;6152746;23;20313;-82
2023/01/11 08:36:31;;;;;;;28.70;5.30;;;9.00;99.90;;;;;;6156218;23;20045;-83
2023/01/11 08:38:57;;;;;;;27.42;4.80;;;9.10;99.90;;;;;;6156247;23;20024;-82
2023/01/11 08:41:23;;;;;;;28.17;4.18;;;9.00;99.90;;;;;;6154589;23;20017;-82
2023/01/11 08:43:49;;;;;;;21.88;4.25;;;8.80;99.90;;;;;;6152939;23;20088;-83
2023/01/11 08:46:16;;;;;;;24.77;4.57;;;8.70;99.90;;;;;;6154744;23;20041;-82
2023/01/11 08:48:43;;;;;;;23.10;4.53;;;8.90;99.90;;;;;;6154546;23;20017;-82
2023/01/11 08:51:08;;;;;;;27.45;5.05;;;8.50;99.90;;;;;;6154259;23;20033;-82
2023/01/11 08:53:35;;;;;;;24.02;4.10;;;8.60;99.90;;;;;;6154687;23;20013;-82
2023/01/11 08:56:00;;;;;;;26.10;4.68;;;8.90;99.90;;;;;;6154100;23;20096;-81
2023/01/11 08:58:26;;;;;;;23.92;4.50;;;8.60;99.90;;;;;;6153432;23;20103;-83
2023/01/11 09:00:52;;;;;;;28.48;4.45;;;8.60;99.90;;;;;;6154161;23;20010;-82
2023/01/11 09:03:17;;;;;;;21.10;4.82;;;8.50;99.90;;;;;;6154283;23;20021;-83
2023/01/11 09:05:44;;;;;;;20.85;4.25;;;8.50;99.90;;;;;;6156255;23;20013;-83
2023/01/11 09:08:10;;;;;;;16.80;3.75;;;8.60;99.90;;;;;;6154464;23;20065;-83
2023/01/11 09:10:36;;;;;;;20.98;3.97;;;8.40;99.90;;;;;;6153946;23;20052;-82
2023/01/11 09:13:02;;;;;;;19.67;3.90;;;8.40;99.90;;;;;;6153820;23;20017;-83
2023/01/11 09:15:29;;;;;;;27.42;4.22;;;8.20;99.90;;;;;;6153394;23;20028;-83
2023/01/11 09:17:54;;;;;;;23.83;4.55;;;8.40;99.90;;;;;;6154437;23;20429;-83
2023/01/11 09:20:21;;;;;;;20.40;3.90;;;8.30;99.90;;;;;;6153651;23;20088;-83
2023/01/11 09:22:51;;;;;;;20.27;4.18;;;8.30;99.90;;;;;;6153880;23;20012;-82
2023/01/11 09:25:18;;;;;;;19.48;3.97;;;8.30;99.90;;;;;;6154181;23;20052;-82
2023/01/11 09:27:48;;;;;;;18.48;3.83;;;8.40;99.90;;;;;;6153348;23;20013;-82
2023/01/11 09:30:19;;;;;;;23.88;5.00;;;8.50;99.90;;;;;;6153948;23;20059;-82
2023/01/11 09:32:46;;;;;;;16.35;3.70;;;8.50;99.90;;;;;;6153433;23;20092;-82
2023/01/11 09:35:14;;;;;;;23.15;4.35;;;8.80;99.90;;;;;;6155387;23;20023;-83
2023/01/11 09:37:43;;;;;;;22.52;4.32;;;8.60;99.90;;;;;;6153744;23;20013;-82
2023/01/11 09:40:38;;;;;;;19.00;3.75;;;8.80;99.90;;;;;;6153505;23;20460;-82
2023/01/11 09:43:06;;;;;;;18.10;3.58;;;8.60;99.90;;;;;;6153823;23;20021;-83
2023/01/11 09:45:34;;;;;;;15.82;3.55;;;8.70;99.90;;;;;;6155696;23;20009;-82
2023/01/11 09:48:32;;;;;;;22.60;4.22;;;8.80;99.90;;;;;;6154499;23;20009;-83
2023/01/11 09:50:59;;;;;;;16.50;3.40;;;8.80;99.90;;;;;;6129581;23;20063;-82
2023/01/11 09:53:33;;;;;;;13.23;3.22;;;9.10;99.90;;;;;;6154561;23;20457;-82
2023/01/11 09:56:02;;;;;;;14.10;3.28;;;8.80;99.90;;;;;;6155325;23;20009;-82
2023/01/11 09:58:34;;;;;;;14.93;3.55;;;8.80;99.90;;;;;;6154250;23;20013;-82
2023/01/11 10:01:37;;;;;;;21.13;3.65;;;8.70;99.90;;;;;;6153547;23;20014;-82
2023/01/11 10:04:40;;;;;;;18.23;3.38;;;8.70;99.90;;;;;;6154088;23;20013;-83
2023/01/11 10:07:33;;;;;;;20.73;3.95;;;8.60;99.90;;;;;;6153319;23;20017;-83
2023/01/11 10:10:05;;;;;;;24.07;4.07;;;8.60;99.90;;;;;;6124692;23;20026;-83
2023/01/11 10:12:43;;;;;;;14.32;3.63;;;8.60;99.90;;;;;;6152666;23;20444;-83
2023/01/11 10:15:20;;;;;;;14.63;3.53;;;8.60;99.90;;;;;;6151563;23;20341;-83
2023/01/11 10:18:08;;;;;;;23.67;3.55;;;8.60;99.90;;;;;;6153620;23;20101;-84
2023/01/11 10:20:42;;;;;;;16.42;3.58;;;8.60;99.90;;;;;;6151694;23;20071;-84
2023/01/11 10:23:23;;;;;;;19.35;3.47;;;8.60;99.90;;;;;;6151779;23;20014;-84
2023/01/11 10:25:54;;;;;;;18.02;3.50;;;8.60;99.90;;;;;;6152976;23;20024;-83
2023/01/11 10:28:30;;;;;;;21.42;3.60;;;8.80;99.90;;;;;;6151553;23;20109;-83
2023/01/11 10:37:15;;;;;;;17.58;3.78;;;8.60;99.90;;;;;;6151129;23;20018;-83
2023/01/11 10:42:38;;;;;;;22.08;4.07;;;8.60;99.90;;;;;;6151287;23;20025;-84
2023/01/11 10:45:14;;;;;;;20.35;4.03;;;8.70;99.90;;;;;;6151765;23;20020;-83
2023/01/11 10:48:21;;;;;;;22.17;4.40;;;8.70;99.90;;;;;;6153268;23;20005;-83
2023/01/11 10:51:26;;;;;;;21.80;4.43;;;8.80;99.90;;;;;;6153240;23;20029;-83
2023/01/11 10:54:15;;;;;;;19.52;4.00;;;9.00;99.90;;;;;;6151033;23;20017;-83
2023/01/11 10:56:53;;;;;;;24.33;4.78;;;9.20;99.90;;;;;;6151136;23;20084;-84
2023/01/11 10:59:21;;;;;;;19.65;4.20;;;9.30;99.90;;;;;;6151263;23;20025;-84
2023/01/11 11:02:17;;;;;;;22.35;4.07;;;9.40;99.90;;;;;;6151365;23;20084;-83
2023/01/11 11:04:50;;;;;;;19.80;4.10;;;9.50;99.90;;;;;;6151299;23;20009;-83
2023/01/11 11:07:33;;;;;;;20.73;4.47;;;9.70;99.90;;;;;;6150770;23;20020;-84
2023/01/11 11:10:23;;;;;;;21.83;4.35;;;9.50;99.90;;;;;;6153377;23;20013;-84
2023/01/11 11:12:57;;;;;;;18.13;4.82;;;9.50;99.90;;;;;;6153114;23;20005;-83
2023/01/11 11:15:30;;;;;;;23.05;5.15;;;9.50;99.90;;;;;;6150967;23;20022;-83
2023/01/11 11:17:56;;;;;;;22.42;4.10;;;9.40;99.90;;;;;;6151839;23;20074;-83
2023/01/11 11:20:27;;;;;;;23.70;4.43;;;9.40;99.90;;;;;;6151375;23;20104;-83
2023/01/11 11:22:55;;;;;;;24.98;4.82;;;9.50;99.90;;;;;;6150919;23;20084;-83
2023/01/11 11:25:28;;;;;;;27.13;6.13;;;9.50;99.90;;;;;;6152861;23;20018;-84
2023/01/11 11:28:18;;;;;;;25.40;5.20;;;9.50;99.90;;;;;;6151190;23;20009;-84
2023/01/11 11:30:46;;;;;;;24.58;4.55;;;9.50;99.90;;;;;;6151164;23;20021;-83
2023/01/11 11:33:20;;;;;;;23.98;5.03;;;9.60;99.90;;;;;;6151160;23;20045;-84
2023/01/11 11:35:58;;;;;;;23.88;4.55;;;9.60;99.90;;;;;;6153229;23;20068;-84
2023/01/11 11:38:29;;;;;;;22.10;4.30;;;9.50;99.90;;;;;;6152374;23;20056;-84
2023/01/11 11:41:07;;;;;;;22.30;4.60;;;9.50;99.90;;;;;;6126757;23;20332;-83
2023/01/11 11:43:41;;;;;;;18.48;3.97;;;9.50;99.90;;;;;;6151315;23;20021;-84
2023/01/11 11:46:12;;;;;;;20.13;4.38;;;9.40;99.90;;;;;;6152563;23;20056;-84
2023/01/11 11:48:39;;;;;;;20.13;4.80;;;9.40;99.90;;;;;;6151053;23;20017;-83
2023/01/11 11:51:09;;;;;;;20.33;4.25;;;9.30;99.90;;;;;;6152438;23;20010;-83
2023/01/11 11:53:43;;;;;;;19.77;4.68;;;9.30;99.90;;;;;;6151302;23;20018;-84
2023/01/11 11:56:24;;;;;;;;;;;9.20;99.90;;;;;;6151801;23;20017;-83
2023/01/11 11:58:51;;;;;;;18.58;4.70;;;9.20;99.90;;;;;;6151065;23;19923;-84
2023/01/11 12:01:38;;;;;;;18.52;4.82;;;9.30;99.90;;;;;;6152945;23;20013;-83
2023/01/11 12:04:29;;;;;;;24.52;4.63;;;9.30;99.90;;;;;;6153426;23;20115;-84
2023/01/11 12:07:07;;;;;;;18.05;4.30;;;9.40;99.90;;;;;;6126041;23;20315;-84
2023/01/11 12:09:35;;;;;;;25.20;4.93;;;9.50;99.90;;;;;;6154638;23;20013;-84
2023/01/11 12:12:01;;;;;;;25.33;4.65;;;9.40;99.90;;;;;;6155139;23;20014;-84
2023/01/11 12:14:29;;;;;;;19.75;4.32;;;9.40;99.90;;;;;;6154842;23;20028;-84
2023/01/11 12:16:57;;;;;;;23.40;4.63;;;9.50;99.90;;;;;;6154989;23;20076;-84
2023/01/11 12:19:44;;;;;;;25.50;5.50;;;9.70;99.90;;;;;;6153124;23;20040;-84
2023/01/11 12:22:24;;;;;;;20.77;4.80;;;9.60;99.90;;;;;;6153046;23;20015;-84
2023/01/11 12:25:14;;;;;;;23.85;4.60;;;9.60;99.90;;;;;;6153183;23;20036;-84
2023/01/11 12:27:45;;;;;;;27.77;5.05;;;9.60;99.90;;;;;;6153373;23;20005;-84
2023/01/11 12:30:23;;;;;;;26.25;5.63;;;9.70;99.90;;;;;;6154859;23;20017;-84
2023/01/11 12:33:04;;;;;;;23.73;4.55;;;9.70;99.90;;;;;;6155316;23;20455;-83
2023/01/11 12:36:18;;;;;;;26.10;4.72;;;9.80;99.90;;;;;;6154112;23;20014;-83
2023/01/11 12:39:01;;;;;;;23.13;4.65;;;9.90;99.90;;;;;;6142722;23;20013;-84
2023/01/11 12:41:55;;;;;;;27.75;5.63;;;9.90;99.90;;;;;;6156536;23;20029;-83
2023/01/11 12:44:42;;;;;;;25.13;4.85;;;9.90;99.90;;;;;;6155490;23;20013;-83
2023/01/11 12:47:32;;;;;;;27.08;4.82;;;9.90;99.90;;;;;;6154607;23;20032;-83
2023/01/11 12:50:03;;;;;;;27.98;5.65;;;9.90;99.90;;;;;;6154207;23;20030;-84
2023/01/11 12:52:39;;;;;;;32.90;5.25;;;9.90;99.90;;;;;;6154264;23;20021;-85
2023/01/11 12:55:23;;;;;;;22.27;4.82;;;9.80;99.90;;;;;;6153612;23;20344;-83
2023/01/11 12:58:00;;;;;;;23.88;5.13;;;9.80;99.90;;;;;;6155354;23;20421;-83
2023/01/11 13:00:59;;;;;;;32.60;5.80;;;9.80;99.90;;;;;;6156118;23;20016;-83
2023/01/11 13:03:52;;;;;;;21.05;5.10;;;9.80;99.90;;;;;;6153445;23;20024;-83
2023/01/11 13:06:28;;;;;;;23.25;4.78;;;9.80;99.90;;;;;;6154389;23;20080;-84
2023/01/11 13:09:03;;;;;;;23.55;5.22;;;9.70;99.90;;;;;;6156120;23;20466;-83
2023/01/11 13:11:47;;;;;;;25.95;5.55;;;9.70;99.90;;;;;;6129268;23;20073;-84
2023/01/11 13:14:28;;;;;;;23.98;4.90;;;9.70;99.90;;;;;;6154056;23;20021;-84
2023/01/11 13:17:01;;;;;;;23.80;4.90;;;9.70;99.90;;;;;;6153968;23;20025;-84
2023/01/11 13:19:41;;;;;;;26.73;5.40;;;9.70;99.90;;;;;;6153213;23;20049;-83
2023/01/11 13:22:15;;;;;;;25.27;6.80;;;9.60;99.90;;;;;;6154072;23;20014;-82
2023/01/11 13:24:45;;;;;;;20.17;4.47;;;9.50;99.90;;;;;;6153811;23;20005;-84
2023/01/11 13:27:15;;;;;;;24.42;5.32;;;9.60;99.90;;;;;;6155331;23;20085;-83
2023/01/11 13:29:43;;;;;;;23.98;5.25;;;9.60;99.90;;;;;;6154194;23;20013;-83
2023/01/11 13:32:20;;;;;;;23.77;5.40;;;9.50;99.90;;;;;;6152877;23;20045;-84
2023/01/11 13:35:16;;;;;;;34.25;6.45;;;9.60;99.90;;;;;;6154256;23;20009;-84
2023/01/11 13:37:57;;;;;;;26.50;6.05;;;9.50;99.90;;;;;;6152705;23;20024;-84